NCAR-RAP Real-Time Weather Data

Output produced by METARs form (20 February 2019  18:23 UTC)
found at http://weather.rap.ucar.edu/surface/
 
RJSS 201200Z 10007KT 9999 FEW008 BKN015 06/03 Q1013
RJSS 201100Z 08009KT 9999 FEW008 BKN015 06/03 Q1013
RJSS 201000Z 11009KT 9999 FEW008 BKN012 07/04 Q1013
RJSS 200900Z 10007KT 9999 FEW008 BKN012 06/04 Q1013
RJSS 200800Z 09006KT 9999 FEW008 BKN012 06/04 Q1013
RJSS 200700Z 09005KT 040V140 9999 FEW008 BKN012 07/04 Q1013
RJSS 200600Z 08010KT 9999 FEW008 BKN012 06/04 Q1012
RJSS 200500Z 08009KT 9999 FEW006 SCT008 BKN010 06/04 Q1012
RJSS 200427Z 08009KT 9999 FEW006 SCT008 BKN010 06/04 Q1012 RMK 1ST006 4ST008 7ST010 A2990
RJSS 200400Z 07009KT 9999 FEW006 BKN008 BKN010 07/04 Q1012
RJSS 200300Z 08008KT 9999 FEW005 BKN008 BKN010 06/04 Q1013
RJSS 200200Z 09007KT 9999 FEW006 BKN008 BKN010 07/05 Q1014
RJSS 200100Z 09009KT 9999 -SHRA FEW006 SCT009 BKN010 07/05 Q1013
RJSS 200000Z 11009KT 8000 FEW006 SCT008 BKN010 07/06 Q1013
RJSS 192336Z 13003KT 090V160 5000 BR FEW006 BKN009 BKN010 07/06 Q1013 RMK 1ST006 5ST009 7ST010 A2991
RJSS 192300Z 21004KT 170V240 5000 BR FEW005 SCT010 BKN015 06/05 Q1012
RJSS 192200Z VRB03KT 4000 BR FEW005 SCT050 BKN060 05/04 Q1011
RJSS 192146Z 24004KT 190V270 4000 BR FEW005 SCT050 BKN060 05/04 Q1011 RMK 1ST005 4CU050 6SC060 A2986
RJSS 192124Z 35005KT 310V080 5000 BR FEW002 SCT010 BKN050 05/04 Q1010 RMK 1ST002 3ST010 6CU050 A2984
RJSS 192100Z 06005KT 020V140 5000 BR FEW002 SCT004 BKN006 05/05 Q1010
RJSS 192045Z VRB05KT 5000 BR FEW002 SCT003 BKN004 05/04 Q1010 RMK 1ST002 3ST003 6ST004 A2983
RJSS 192030Z 16004KT 100V220 5000 BR FEW002 SCT004 BKN005 05/04 Q1010 RMK 1ST002 3ST004 7ST005 A2984
RJSS 191200Z 35005KT 8000 -RA FEW005 BKN007 06/04 Q1013
RJSS 191100Z 34003KT 9999 -RA FEW006 BKN008 06/04 Q1014
RJSS 191000Z 36003KT 9999 -RA FEW008 BKN009 06/05 Q1015
RJSS 190900Z VRB02KT 9999 -RA FEW010 BKN015 BKN060 07/06 Q1017
RJSS 190800Z 10004KT 9999 -RA FEW010 BKN040 BKN050 07/05 Q1017
RJSS 190700Z 08004KT 9999 -RA FEW020 BKN040 BKN070 08/05 Q1018
RJSS 190600Z 08003KT 9999 FEW020 BKN080 BKN100 08/03 Q1019
RJSS 190500Z 05003KT 9999 FEW020 BKN100 08/02 Q1019
RJSS 190400Z 05003KT 010V090 9999 FEW020 SCT025 BKN100 08/01 Q1021
RJSS 190300Z 11003KT 060V200 9999 FEW020 SCT025 BKN100 08/01 Q1022
RJSS 190200Z VRB01KT 9999 FEW020 SCT025 BKN120 08/M00 Q1024
RJSS 190100Z VRB02KT 9999 FEW020 SCT030 BKN120 06/M02 Q1025
RJSS 190000Z 35004KT 9999 FEW030 BKN120 04/M02 Q1026
RJSS 182300Z VRB02KT 9999 FEW030 BKN120 02/M02 Q1027
RJSS 182200Z VRB02KT 9999 FEW007 BKN140 01/M02 Q1026
RJSS 182100Z 02002KT 9999 FEW030 BKN170 00/M03 Q1026
RJSS 182030Z VRB01KT 9999 FEW030 SCT170 BKN/// 00/M04 Q1027 RMK 1CU030 4AC170 A3033
RJSS 181200Z VRB02KT 9999 FEW025 04/M04 Q1026
RJSS 181100Z 28003KT 9999 FEW025 04/M05 Q1026
RJSS 181000Z 14003KT 110V180 9999 FEW025 06/M05 Q1025
RJSS 180900Z 27004KT 210V300 9999 FEW025 06/M06 Q1024
RJSS 180800Z 30011KT 9999 FEW025 09/M06 Q1023
RJSS 180700Z 31013KT 9999 FEW030 10/M06 Q1023